sensor_id;sensor_type;location;lat;lon;timestamp;P1;durP1;ratioP1;P2;durP2;ratioP2
19923;SDS011;10124;53.068;18.224;2023-05-07T00:00:28;38.40;;;27.67;;
19923;SDS011;10124;53.068;18.224;2023-05-07T00:03:16;102.77;;;36.03;;
19923;SDS011;10124;53.068;18.224;2023-05-07T00:05:43;45.83;;;26.17;;
19923;SDS011;10124;53.068;18.224;2023-05-07T00:08:11;37.77;;;26.53;;
19923;SDS011;10124;53.068;18.224;2023-05-07T00:10:38;33.93;;;25.87;;
19923;SDS011;10124;53.068;18.224;2023-05-07T00:13:06;32.20;;;24.70;;
19923;SDS011;10124;53.068;18.224;2023-05-07T00:15:33;37.97;;;25.57;;
19923;SDS011;10124;53.068;18.224;2023-05-07T00:18:00;35.03;;;25.47;;
19923;SDS011;10124;53.068;18.224;2023-05-07T00:20:28;36.00;;;27.13;;
19923;SDS011;10124;53.068;18.224;2023-05-07T00:22:55;32.23;;;23.47;;
19923;SDS011;10124;53.068;18.224;2023-05-07T00:25:22;36.07;;;25.47;;
19923;SDS011;10124;53.068;18.224;2023-05-07T00:27:50;26.27;;;21.60;;
19923;SDS011;10124;53.068;18.224;2023-05-07T00:30:17;37.40;;;27.63;;
19923;SDS011;10124;53.068;18.224;2023-05-07T00:32:44;53.00;;;34.37;;
19923;SDS011;10124;53.068;18.224;2023-05-07T00:35:12;39.63;;;28.47;;
19923;SDS011;10124;53.068;18.224;2023-05-07T00:37:39;37.57;;;26.50;;
19923;SDS011;10124;53.068;18.224;2023-05-07T00:40:07;35.70;;;25.40;;
19923;SDS011;10124;53.068;18.224;2023-05-07T00:42:35;37.07;;;25.70;;
19923;SDS011;10124;53.068;18.224;2023-05-07T00:45:03;35.50;;;25.43;;
19923;SDS011;10124;53.068;18.224;2023-05-07T00:47:31;32.73;;;25.30;;
19923;SDS011;10124;53.068;18.224;2023-05-07T00:49:58;36.10;;;26.73;;
19923;SDS011;10124;53.068;18.224;2023-05-07T00:52:25;32.90;;;25.50;;
19923;SDS011;10124;53.068;18.224;2023-05-07T00:54:54;41.00;;;28.30;;
19923;SDS011;10124;53.068;18.224;2023-05-07T00:57:22;32.77;;;25.93;;
19923;SDS011;10124;53.068;18.224;2023-05-07T00:59:51;33.23;;;24.83;;
19923;SDS011;10124;53.068;18.224;2023-05-07T01:02:19;45.97;;;26.67;;
19923;SDS011;10124;53.068;18.224;2023-05-07T01:04:47;33.80;;;26.23;;
19923;SDS011;10124;53.068;18.224;2023-05-07T01:07:14;40.20;;;28.63;;
19923;SDS011;10124;53.068;18.224;2023-05-07T01:09:42;36.13;;;24.93;;
19923;SDS011;10124;53.068;18.224;2023-05-07T01:12:10;32.13;;;24.60;;
19923;SDS011;10124;53.068;18.224;2023-05-07T01:14:37;32.03;;;24.40;;
19923;SDS011;10124;53.068;18.224;2023-05-07T01:17:04;38.80;;;27.27;;
19923;SDS011;10124;53.068;18.224;2023-05-07T01:19:33;39.00;;;26.57;;
19923;SDS011;10124;53.068;18.224;2023-05-07T01:22:04;34.53;;;24.97;;
19923;SDS011;10124;53.068;18.224;2023-05-07T01:24:44;41.30;;;26.90;;
19923;SDS011;10124;53.068;18.224;2023-05-07T01:27:13;35.00;;;26.67;;
19923;SDS011;10124;53.068;18.224;2023-05-07T01:29:41;31.00;;;24.30;;
19923;SDS011;10124;53.068;18.224;2023-05-07T01:32:08;38.07;;;26.70;;
19923;SDS011;10124;53.068;18.224;2023-05-07T01:34:37;32.87;;;24.90;;
19923;SDS011;10124;53.068;18.224;2023-05-07T01:37:06;33.70;;;25.20;;
19923;SDS011;10124;53.068;18.224;2023-05-07T01:39:33;33.60;;;24.20;;
19923;SDS011;10124;53.068;18.224;2023-05-07T01:42:01;33.60;;;24.80;;
19923;SDS011;10124;53.068;18.224;2023-05-07T01:44:29;39.63;;;26.57;;
19923;SDS011;10124;53.068;18.224;2023-05-07T01:46:57;41.87;;;26.00;;
19923;SDS011;10124;53.068;18.224;2023-05-07T01:49:24;31.60;;;25.00;;
19923;SDS011;10124;53.068;18.224;2023-05-07T01:51:53;33.87;;;24.10;;
19923;SDS011;10124;53.068;18.224;2023-05-07T01:54:24;32.93;;;25.43;;
19923;SDS011;10124;53.068;18.224;2023-05-07T01:56:55;29.07;;;23.50;;
19923;SDS011;10124;53.068;18.224;2023-05-07T01:59:24;33.80;;;26.63;;
19923;SDS011;10124;53.068;18.224;2023-05-07T02:01:52;32.63;;;24.13;;
19923;SDS011;10124;53.068;18.224;2023-05-07T02:04:19;32.77;;;25.30;;
19923;SDS011;10124;53.068;18.224;2023-05-07T02:06:47;35.07;;;24.67;;
19923;SDS011;10124;53.068;18.224;2023-05-07T02:09:15;35.27;;;24.40;;
19923;SDS011;10124;53.068;18.224;2023-05-07T02:11:46;31.77;;;24.97;;
19923;SDS011;10124;53.068;18.224;2023-05-07T02:14:14;36.87;;;26.63;;
19923;SDS011;10124;53.068;18.224;2023-05-07T02:16:42;33.27;;;25.27;;
19923;SDS011;10124;53.068;18.224;2023-05-07T02:19:12;36.40;;;25.47;;
19923;SDS011;10124;53.068;18.224;2023-05-07T02:21:40;33.67;;;24.43;;
19923;SDS011;10124;53.068;18.224;2023-05-07T02:24:07;37.60;;;26.20;;
19923;SDS011;10124;53.068;18.224;2023-05-07T02:26:35;38.17;;;24.83;;
19923;SDS011;10124;53.068;18.224;2023-05-07T02:29:03;40.27;;;29.33;;
19923;SDS011;10124;53.068;18.224;2023-05-07T02:31:31;86.33;;;34.53;;
19923;SDS011;10124;53.068;18.224;2023-05-07T02:34:00;186.80;;;46.03;;
19923;SDS011;10124;53.068;18.224;2023-05-07T02:36:28;66.40;;;31.00;;
19923;SDS011;10124;53.068;18.224;2023-05-07T02:39:06;81.73;;;34.70;;
19923;SDS011;10124;53.068;18.224;2023-05-07T02:41:34;56.67;;;30.80;;
19923;SDS011;10124;53.068;18.224;2023-05-07T02:44:01;111.30;;;40.73;;
19923;SDS011;10124;53.068;18.224;2023-05-07T02:46:30;119.13;;;41.83;;
19923;SDS011;10124;53.068;18.224;2023-05-07T02:49:02;59.47;;;32.83;;
19923;SDS011;10124;53.068;18.224;2023-05-07T02:51:30;65.30;;;33.97;;
19923;SDS011;10124;53.068;18.224;2023-05-07T02:54:01;60.73;;;37.00;;
19923;SDS011;10124;53.068;18.224;2023-05-07T02:56:30;73.50;;;37.03;;
19923;SDS011;10124;53.068;18.224;2023-05-07T02:58:58;71.70;;;37.27;;
19923;SDS011;10124;53.068;18.224;2023-05-07T03:01:30;62.10;;;35.23;;
19923;SDS011;10124;53.068;18.224;2023-05-07T03:04:04;62.40;;;36.30;;
19923;SDS011;10124;53.068;18.224;2023-05-07T03:06:32;64.63;;;34.87;;
19923;SDS011;10124;53.068;18.224;2023-05-07T03:08:59;65.97;;;35.23;;
19923;SDS011;10124;53.068;18.224;2023-05-07T03:11:26;50.03;;;34.07;;
19923;SDS011;10124;53.068;18.224;2023-05-07T03:13:54;57.67;;;32.57;;
19923;SDS011;10124;53.068;18.224;2023-05-07T03:16:22;48.33;;;32.80;;
19923;SDS011;10124;53.068;18.224;2023-05-07T03:18:49;47.87;;;32.90;;
19923;SDS011;10124;53.068;18.224;2023-05-07T03:21:16;52.73;;;32.77;;
19923;SDS011;10124;53.068;18.224;2023-05-07T03:23:43;47.67;;;33.87;;
19923;SDS011;10124;53.068;18.224;2023-05-07T03:26:11;49.77;;;33.00;;
19923;SDS011;10124;53.068;18.224;2023-05-07T03:28:38;49.23;;;34.57;;
19923;SDS011;10124;53.068;18.224;2023-05-07T03:31:10;49.47;;;33.43;;
19923;SDS011;10124;53.068;18.224;2023-05-07T03:33:39;48.47;;;32.20;;
19923;SDS011;10124;53.068;18.224;2023-05-07T03:36:23;44.10;;;31.70;;
19923;SDS011;10124;53.068;18.224;2023-05-07T03:38:54;50.40;;;32.13;;
19923;SDS011;10124;53.068;18.224;2023-05-07T03:41:25;69.80;;;38.97;;
19923;SDS011;10124;53.068;18.224;2023-05-07T03:43:53;66.73;;;38.83;;
19923;SDS011;10124;53.068;18.224;2023-05-07T03:46:20;81.70;;;38.30;;
19923;SDS011;10124;53.068;18.224;2023-05-07T03:48:47;62.10;;;36.20;;
19923;SDS011;10124;53.068;18.224;2023-05-07T03:51:16;76.33;;;37.43;;
19923;SDS011;10124;53.068;18.224;2023-05-07T03:53:43;76.00;;;36.57;;
19923;SDS011;10124;53.068;18.224;2023-05-07T03:56:11;68.00;;;34.13;;
19923;SDS011;10124;53.068;18.224;2023-05-07T03:58:39;77.20;;;36.30;;
19923;SDS011;10124;53.068;18.224;2023-05-07T04:01:09;66.03;;;34.63;;
19923;SDS011;10124;53.068;18.224;2023-05-07T04:03:37;64.57;;;36.23;;
19923;SDS011;10124;53.068;18.224;2023-05-07T04:06:05;56.87;;;35.20;;
19923;SDS011;10124;53.068;18.224;2023-05-07T04:08:34;92.00;;;38.57;;
19923;SDS011;10124;53.068;18.224;2023-05-07T04:11:03;38.33;;;30.80;;
19923;SDS011;10124;53.068;18.224;2023-05-07T04:13:32;68.00;;;35.70;;
19923;SDS011;10124;53.068;18.224;2023-05-07T04:16:02;155.93;;;48.27;;
19923;SDS011;10124;53.068;18.224;2023-05-07T04:18:33;118.90;;;44.67;;
19923;SDS011;10124;53.068;18.224;2023-05-07T04:21:01;81.93;;;46.17;;
19923;SDS011;10124;53.068;18.224;2023-05-07T04:23:29;68.47;;;31.13;;
19923;SDS011;10124;53.068;18.224;2023-05-07T04:26:00;37.30;;;26.83;;
19923;SDS011;10124;53.068;18.224;2023-05-07T04:28:36;39.03;;;26.17;;
19923;SDS011;10124;53.068;18.224;2023-05-07T04:31:03;41.50;;;25.77;;
19923;SDS011;10124;53.068;18.224;2023-05-07T04:33:34;35.63;;;24.10;;
19923;SDS011;10124;53.068;18.224;2023-05-07T04:36:03;48.20;;;25.53;;
19923;SDS011;10124;53.068;18.224;2023-05-07T04:38:35;56.70;;;25.97;;
19923;SDS011;10124;53.068;18.224;2023-05-07T04:41:04;43.67;;;25.17;;
19923;SDS011;10124;53.068;18.224;2023-05-07T04:43:37;38.30;;;22.63;;
19923;SDS011;10124;53.068;18.224;2023-05-07T04:46:05;41.60;;;22.70;;
19923;SDS011;10124;53.068;18.224;2023-05-07T04:48:32;48.37;;;24.60;;
19923;SDS011;10124;53.068;18.224;2023-05-07T04:51:01;33.60;;;23.00;;
19923;SDS011;10124;53.068;18.224;2023-05-07T04:53:28;38.20;;;24.13;;
19923;SDS011;10124;53.068;18.224;2023-05-07T04:55:57;36.50;;;24.23;;
19923;SDS011;10124;53.068;18.224;2023-05-07T04:58:30;44.27;;;25.73;;
19923;SDS011;10124;53.068;18.224;2023-05-07T05:00:59;38.93;;;25.53;;
19923;SDS011;10124;53.068;18.224;2023-05-07T05:03:27;32.83;;;25.17;;
19923;SDS011;10124;53.068;18.224;2023-05-07T05:05:56;34.93;;;25.13;;
19923;SDS011;10124;53.068;18.224;2023-05-07T05:08:29;34.07;;;24.37;;
19923;SDS011;10124;53.068;18.224;2023-05-07T05:11:00;37.47;;;24.97;;
19923;SDS011;10124;53.068;18.224;2023-05-07T05:13:30;28.63;;;22.10;;
19923;SDS011;10124;53.068;18.224;2023-05-07T05:15:58;30.43;;;25.47;;
19923;SDS011;10124;53.068;18.224;2023-05-07T05:18:28;39.20;;;28.20;;
19923;SDS011;10124;53.068;18.224;2023-05-07T05:20:56;39.27;;;29.07;;
19923;SDS011;10124;53.068;18.224;2023-05-07T05:23:23;43.30;;;28.73;;
19923;SDS011;10124;53.068;18.224;2023-05-07T05:25:55;35.20;;;27.33;;
19923;SDS011;10124;53.068;18.224;2023-05-07T05:28:25;42.20;;;31.53;;
19923;SDS011;10124;53.068;18.224;2023-05-07T05:30:54;46.77;;;34.13;;
19923;SDS011;10124;53.068;18.224;2023-05-07T05:33:23;40.93;;;32.37;;
19923;SDS011;10124;53.068;18.224;2023-05-07T05:35:50;48.17;;;34.03;;
19923;SDS011;10124;53.068;18.224;2023-05-07T05:38:18;50.97;;;36.53;;
19923;SDS011;10124;53.068;18.224;2023-05-07T05:40:46;49.90;;;35.27;;
19923;SDS011;10124;53.068;18.224;2023-05-07T05:43:13;48.67;;;34.83;;
19923;SDS011;10124;53.068;18.224;2023-05-07T05:45:42;43.43;;;33.27;;
19923;SDS011;10124;53.068;18.224;2023-05-07T05:48:09;49.23;;;34.10;;
19923;SDS011;10124;53.068;18.224;2023-05-07T05:50:37;39.43;;;30.77;;
19923;SDS011;10124;53.068;18.224;2023-05-07T05:53:06;42.47;;;30.03;;
19923;SDS011;10124;53.068;18.224;2023-05-07T05:55:33;35.30;;;28.70;;
19923;SDS011;10124;53.068;18.224;2023-05-07T05:58:01;35.07;;;27.30;;
19923;SDS011;10124;53.068;18.224;2023-05-07T06:00:31;33.77;;;26.13;;
19923;SDS011;10124;53.068;18.224;2023-05-07T06:03:02;30.90;;;24.90;;
19923;SDS011;10124;53.068;18.224;2023-05-07T06:05:30;33.20;;;23.77;;
19923;SDS011;10124;53.068;18.224;2023-05-07T06:07:57;30.40;;;20.57;;
19923;SDS011;10124;53.068;18.224;2023-05-07T06:10:29;22.93;;;18.33;;
19923;SDS011;10124;53.068;18.224;2023-05-07T06:12:57;25.47;;;19.53;;
19923;SDS011;10124;53.068;18.224;2023-05-07T06:15:25;26.60;;;20.07;;
19923;SDS011;10124;53.068;18.224;2023-05-07T06:17:53;25.97;;;19.50;;
19923;SDS011;10124;53.068;18.224;2023-05-07T06:20:23;21.97;;;16.57;;
19923;SDS011;10124;53.068;18.224;2023-05-07T06:22:51;22.07;;;16.07;;
19923;SDS011;10124;53.068;18.224;2023-05-07T06:25:19;21.03;;;15.00;;
19923;SDS011;10124;53.068;18.224;2023-05-07T06:27:47;21.23;;;14.57;;
19923;SDS011;10124;53.068;18.224;2023-05-07T06:30:15;18.57;;;11.70;;
19923;SDS011;10124;53.068;18.224;2023-05-07T06:32:43;13.27;;;9.83;;
19923;SDS011;10124;53.068;18.224;2023-05-07T06:35:11;13.87;;;10.33;;
19923;SDS011;10124;53.068;18.224;2023-05-07T06:37:40;15.73;;;10.10;;
19923;SDS011;10124;53.068;18.224;2023-05-07T06:40:15;17.52;;;10.27;;
19923;SDS011;10124;53.068;18.224;2023-05-07T06:42:43;13.82;;;9.30;;
19923;SDS011;10124;53.068;18.224;2023-05-07T06:45:34;11.32;;;7.88;;
19923;SDS011;10124;53.068;18.224;2023-05-07T06:48:02;14.57;;;7.78;;
19923;SDS011;10124;53.068;18.224;2023-05-07T06:50:35;14.13;;;7.80;;
19923;SDS011;10124;53.068;18.224;2023-05-07T06:53:02;13.82;;;5.90;;
19923;SDS011;10124;53.068;18.224;2023-05-07T06:55:32;9.68;;;6.15;;
19923;SDS011;10124;53.068;18.224;2023-05-07T06:58:00;9.57;;;6.18;;
19923;SDS011;10124;53.068;18.224;2023-05-07T07:00:29;10.52;;;5.90;;
19923;SDS011;10124;53.068;18.224;2023-05-07T07:02:57;10.90;;;5.93;;
19923;SDS011;10124;53.068;18.224;2023-05-07T07:05:28;7.65;;;5.38;;
19923;SDS011;10124;53.068;18.224;2023-05-07T07:07:57;10.60;;;5.68;;
19923;SDS011;10124;53.068;18.224;2023-05-07T07:10:26;9.75;;;5.53;;
19923;SDS011;10124;53.068;18.224;2023-05-07T07:12:54;9.73;;;5.40;;
19923;SDS011;10124;53.068;18.224;2023-05-07T07:15:23;10.43;;;5.75;;
19923;SDS011;10124;53.068;18.224;2023-05-07T07:17:53;11.10;;;5.85;;
19923;SDS011;10124;53.068;18.224;2023-05-07T07:20:23;11.93;;;6.22;;
19923;SDS011;10124;53.068;18.224;2023-05-07T07:22:50;8.57;;;5.13;;
19923;SDS011;10124;53.068;18.224;2023-05-07T07:25:18;7.40;;;4.80;;
19923;SDS011;10124;53.068;18.224;2023-05-07T07:27:47;7.90;;;5.20;;
19923;SDS011;10124;53.068;18.224;2023-05-07T07:30:15;12.27;;;5.32;;
19923;SDS011;10124;53.068;18.224;2023-05-07T07:32:46;9.85;;;5.05;;
19923;SDS011;10124;53.068;18.224;2023-05-07T07:35:14;8.15;;;5.10;;
19923;SDS011;10124;53.068;18.224;2023-05-07T07:37:43;10.73;;;5.28;;
19923;SDS011;10124;53.068;18.224;2023-05-07T07:40:12;13.10;;;4.72;;
19923;SDS011;10124;53.068;18.224;2023-05-07T07:42:40;8.30;;;5.10;;
19923;SDS011;10124;53.068;18.224;2023-05-07T07:45:08;5.82;;;3.95;;
19923;SDS011;10124;53.068;18.224;2023-05-07T07:47:40;7.68;;;4.65;;
19923;SDS011;10124;53.068;18.224;2023-05-07T07:50:08;6.70;;;4.32;;
19923;SDS011;10124;53.068;18.224;2023-05-07T07:52:36;9.48;;;4.07;;
19923;SDS011;10124;53.068;18.224;2023-05-07T07:55:05;6.75;;;4.63;;
19923;SDS011;10124;53.068;18.224;2023-05-07T07:57:34;8.18;;;3.95;;
19923;SDS011;10124;53.068;18.224;2023-05-07T08:00:04;6.00;;;3.88;;
19923;SDS011;10124;53.068;18.224;2023-05-07T08:02:42;6.28;;;3.88;;
19923;SDS011;10124;53.068;18.224;2023-05-07T08:05:17;15.98;;;4.90;;
19923;SDS011;10124;53.068;18.224;2023-05-07T08:07:47;6.75;;;3.97;;
19923;SDS011;10124;53.068;18.224;2023-05-07T08:10:23;8.43;;;4.38;;
19923;SDS011;10124;53.068;18.224;2023-05-07T08:12:57;6.38;;;3.50;;
19923;SDS011;10124;53.068;18.224;2023-05-07T08:15:26;7.78;;;4.43;;
19923;SDS011;10124;53.068;18.224;2023-05-07T08:17:54;5.80;;;3.25;;
19923;SDS011;10124;53.068;18.224;2023-05-07T08:20:24;11.40;;;4.07;;
19923;SDS011;10124;53.068;18.224;2023-05-07T08:22:52;8.40;;;3.75;;
19923;SDS011;10124;53.068;18.224;2023-05-07T08:25:20;6.38;;;3.88;;
19923;SDS011;10124;53.068;18.224;2023-05-07T08:27:47;6.80;;;3.85;;
19923;SDS011;10124;53.068;18.224;2023-05-07T08:30:16;5.70;;;3.95;;
19923;SDS011;10124;53.068;18.224;2023-05-07T08:32:44;21.63;;;7.88;;
19923;SDS011;10124;53.068;18.224;2023-05-07T08:35:11;5.28;;;3.90;;
19923;SDS011;10124;53.068;18.224;2023-05-07T08:37:39;8.65;;;4.32;;
19923;SDS011;10124;53.068;18.224;2023-05-07T08:40:07;9.32;;;3.80;;
19923;SDS011;10124;53.068;18.224;2023-05-07T08:42:39;8.38;;;4.38;;
19923;SDS011;10124;53.068;18.224;2023-05-07T08:45:09;9.05;;;3.75;;
19923;SDS011;10124;53.068;18.224;2023-05-07T08:47:46;10.02;;;4.22;;
19923;SDS011;10124;53.068;18.224;2023-05-07T08:50:20;8.63;;;4.18;;
19923;SDS011;10124;53.068;18.224;2023-05-07T08:52:48;10.15;;;3.88;;
19923;SDS011;10124;53.068;18.224;2023-05-07T08:55:16;7.95;;;4.75;;
19923;SDS011;10124;53.068;18.224;2023-05-07T08:57:44;6.97;;;4.25;;
19923;SDS011;10124;53.068;18.224;2023-05-07T09:00:12;6.65;;;4.00;;
19923;SDS011;10124;53.068;18.224;2023-05-07T09:02:41;8.40;;;3.78;;
19923;SDS011;10124;53.068;18.224;2023-05-07T09:05:09;6.75;;;4.03;;
19923;SDS011;10124;53.068;18.224;2023-05-07T09:07:38;8.48;;;4.30;;
19923;SDS011;10124;53.068;18.224;2023-05-07T09:10:06;8.27;;;3.83;;
19923;SDS011;10124;53.068;18.224;2023-05-07T09:12:37;8.57;;;4.28;;
19923;SDS011;10124;53.068;18.224;2023-05-07T09:15:08;8.85;;;4.28;;
19923;SDS011;10124;53.068;18.224;2023-05-07T09:17:36;4.78;;;3.50;;
19923;SDS011;10124;53.068;18.224;2023-05-07T09:20:04;7.85;;;4.20;;
19923;SDS011;10124;53.068;18.224;2023-05-07T09:22:38;7.97;;;4.28;;
19923;SDS011;10124;53.068;18.224;2023-05-07T09:25:10;5.40;;;3.85;;
19923;SDS011;10124;53.068;18.224;2023-05-07T09:27:40;5.93;;;4.18;;
19923;SDS011;10124;53.068;18.224;2023-05-07T09:30:09;14.27;;;4.63;;
19923;SDS011;10124;53.068;18.224;2023-05-07T09:32:37;5.80;;;3.85;;
19923;SDS011;10124;53.068;18.224;2023-05-07T09:35:15;8.95;;;3.85;;
19923;SDS011;10124;53.068;18.224;2023-05-07T09:37:47;8.57;;;4.25;;
19923;SDS011;10124;53.068;18.224;2023-05-07T09:40:22;7.20;;;3.90;;
19923;SDS011;10124;53.068;18.224;2023-05-07T09:42:52;8.82;;;3.85;;
19923;SDS011;10124;53.068;18.224;2023-05-07T09:45:22;13.27;;;5.30;;
19923;SDS011;10124;53.068;18.224;2023-05-07T09:47:54;9.32;;;3.65;;
19923;SDS011;10124;53.068;18.224;2023-05-07T09:50:28;7.72;;;4.15;;
19923;SDS011;10124;53.068;18.224;2023-05-07T09:53:00;4.22;;;3.10;;
19923;SDS011;10124;53.068;18.224;2023-05-07T09:55:28;11.32;;;3.20;;
19923;SDS011;10124;53.068;18.224;2023-05-07T09:57:57;6.13;;;3.28;;
19923;SDS011;10124;53.068;18.224;2023-05-07T10:00:27;6.72;;;3.38;;
19923;SDS011;10124;53.068;18.224;2023-05-07T10:03:04;6.75;;;2.85;;
19923;SDS011;10124;53.068;18.224;2023-05-07T10:05:46;3.95;;;2.70;;
19923;SDS011;10124;53.068;18.224;2023-05-07T10:08:16;8.88;;;3.63;;
19923;SDS011;10124;53.068;18.224;2023-05-07T10:10:48;5.82;;;3.25;;
19923;SDS011;10124;53.068;18.224;2023-05-07T10:13:22;5.13;;;2.00;;
19923;SDS011;10124;53.068;18.224;2023-05-07T10:15:53;5.45;;;2.33;;
19923;SDS011;10124;53.068;18.224;2023-05-07T10:18:24;6.47;;;2.70;;
19923;SDS011;10124;53.068;18.224;2023-05-07T10:21:04;3.38;;;2.58;;
19923;SDS011;10124;53.068;18.224;2023-05-07T10:23:51;4.15;;;3.00;;
19923;SDS011;10124;53.068;18.224;2023-05-07T10:26:31;4.28;;;2.25;;
19923;SDS011;10124;53.068;18.224;2023-05-07T10:29:05;8.02;;;3.50;;
19923;SDS011;10124;53.068;18.224;2023-05-07T10:31:50;5.88;;;2.60;;
19923;SDS011;10124;53.068;18.224;2023-05-07T10:34:32;7.00;;;2.88;;
19923;SDS011;10124;53.068;18.224;2023-05-07T10:37:07;5.13;;;3.08;;
19923;SDS011;10124;53.068;18.224;2023-05-07T10:39:36;4.53;;;2.30;;
19923;SDS011;10124;53.068;18.224;2023-05-07T10:42:07;3.35;;;2.10;;
19923;SDS011;10124;53.068;18.224;2023-05-07T10:44:44;3.15;;;2.25;;
19923;SDS011;10124;53.068;18.224;2023-05-07T10:47:17;3.13;;;2.00;;
19923;SDS011;10124;53.068;18.224;2023-05-07T10:52:23;3.40;;;2.15;;
19923;SDS011;10124;53.068;18.224;2023-05-07T10:57:55;7.88;;;2.30;;
19923;SDS011;10124;53.068;18.224;2023-05-07T11:03:08;6.20;;;2.65;;
19923;SDS011;10124;53.068;18.224;2023-05-07T11:05:41;6.55;;;2.42;;
19923;SDS011;10124;53.068;18.224;2023-05-07T11:08:23;6.82;;;2.97;;
19923;SDS011;10124;53.068;18.224;2023-05-07T11:11:03;3.20;;;2.00;;
19923;SDS011;10124;53.068;18.224;2023-05-07T11:13:53;2.30;;;2.00;;
19923;SDS011;10124;53.068;18.224;2023-05-07T11:16:34;11.85;;;2.75;;
19923;SDS011;10124;53.068;18.224;2023-05-07T11:19:47;4.45;;;2.40;;
19923;SDS011;10124;53.068;18.224;2023-05-07T11:25:17;2.83;;;2.15;;
19923;SDS011;10124;53.068;18.224;2023-05-07T11:28:09;5.18;;;2.70;;
19923;SDS011;10124;53.068;18.224;2023-05-07T11:30:43;6.25;;;2.65;;
19923;SDS011;10124;53.068;18.224;2023-05-07T11:33:16;4.07;;;2.58;;
19923;SDS011;10124;53.068;18.224;2023-05-07T11:35:45;2.92;;;2.10;;
19923;SDS011;10124;53.068;18.224;2023-05-07T11:38:14;6.68;;;2.58;;
19923;SDS011;10124;53.068;18.224;2023-05-07T11:40:50;5.15;;;2.45;;
19923;SDS011;10124;53.068;18.224;2023-05-07T11:43:18;6.55;;;2.40;;
19923;SDS011;10124;53.068;18.224;2023-05-07T11:45:47;3.42;;;2.08;;
19923;SDS011;10124;53.068;18.224;2023-05-07T11:48:15;7.78;;;2.58;;
19923;SDS011;10124;53.068;18.224;2023-05-07T11:50:50;6.55;;;2.10;;
19923;SDS011;10124;53.068;18.224;2023-05-07T11:53:20;3.47;;;1.92;;
19923;SDS011;10124;53.068;18.224;2023-05-07T11:55:53;4.50;;;2.47;;
19923;SDS011;10124;53.068;18.224;2023-05-07T11:58:22;5.43;;;2.38;;
19923;SDS011;10124;53.068;18.224;2023-05-07T12:00:53;2.42;;;1.90;;
19923;SDS011;10124;53.068;18.224;2023-05-07T12:03:21;3.47;;;2.20;;
19923;SDS011;10124;53.068;18.224;2023-05-07T12:05:50;4.95;;;2.47;;
19923;SDS011;10124;53.068;18.224;2023-05-07T12:08:18;3.33;;;2.30;;
19923;SDS011;10124;53.068;18.224;2023-05-07T12:10:47;7.90;;;3.03;;
19923;SDS011;10124;53.068;18.224;2023-05-07T12:13:17;4.18;;;2.50;;
19923;SDS011;10124;53.068;18.224;2023-05-07T12:15:46;5.35;;;2.35;;
19923;SDS011;10124;53.068;18.224;2023-05-07T12:18:17;6.35;;;2.10;;
19923;SDS011;10124;53.068;18.224;2023-05-07T12:20:46;13.40;;;4.50;;
19923;SDS011;10124;53.068;18.224;2023-05-07T12:23:15;2.67;;;2.13;;
19923;SDS011;10124;53.068;18.224;2023-05-07T12:25:44;4.88;;;2.15;;
19923;SDS011;10124;53.068;18.224;2023-05-07T12:28:18;7.72;;;2.50;;
19923;SDS011;10124;53.068;18.224;2023-05-07T12:30:47;3.40;;;1.85;;
19923;SDS011;10124;53.068;18.224;2023-05-07T12:33:19;5.18;;;1.98;;
19923;SDS011;10124;53.068;18.224;2023-05-07T12:35:54;4.82;;;2.15;;
19923;SDS011;10124;53.068;18.224;2023-05-07T12:38:23;6.72;;;2.28;;
19923;SDS011;10124;53.068;18.224;2023-05-07T12:40:53;6.13;;;2.42;;
19923;SDS011;10124;53.068;18.224;2023-05-07T12:43:24;6.03;;;2.90;;
19923;SDS011;10124;53.068;18.224;2023-05-07T12:45:54;11.38;;;3.50;;
19923;SDS011;10124;53.068;18.224;2023-05-07T12:48:23;3.97;;;2.15;;
19923;SDS011;10124;53.068;18.224;2023-05-07T12:50:54;3.22;;;2.05;;
19923;SDS011;10124;53.068;18.224;2023-05-07T12:53:24;3.45;;;1.90;;
19923;SDS011;10124;53.068;18.224;2023-05-07T12:55:55;6.85;;;2.17;;
19923;SDS011;10124;53.068;18.224;2023-05-07T12:58:43;3.75;;;1.90;;
19923;SDS011;10124;53.068;18.224;2023-05-07T13:01:11;25.38;;;6.68;;
19923;SDS011;10124;53.068;18.224;2023-05-07T13:03:47;3.22;;;2.00;;
19923;SDS011;10124;53.068;18.224;2023-05-07T13:06:18;3.42;;;2.20;;
19923;SDS011;10124;53.068;18.224;2023-05-07T13:08:46;14.35;;;2.00;;
19923;SDS011;10124;53.068;18.224;2023-05-07T13:11:14;7.38;;;2.58;;
19923;SDS011;10124;53.068;18.224;2023-05-07T13:13:42;6.78;;;2.45;;
19923;SDS011;10124;53.068;18.224;2023-05-07T13:16:10;15.57;;;5.30;;
19923;SDS011;10124;53.068;18.224;2023-05-07T13:18:39;11.98;;;4.70;;
19923;SDS011;10124;53.068;18.224;2023-05-07T13:21:08;5.47;;;3.38;;
19923;SDS011;10124;53.068;18.224;2023-05-07T13:23:36;3.92;;;2.00;;
19923;SDS011;10124;53.068;18.224;2023-05-07T13:26:05;10.85;;;2.05;;
19923;SDS011;10124;53.068;18.224;2023-05-07T13:28:55;118.68;;;8.85;;
19923;SDS011;10124;53.068;18.224;2023-05-07T13:31:23;6.78;;;2.00;;
19923;SDS011;10124;53.068;18.224;2023-05-07T13:33:51;4.10;;;2.47;;
19923;SDS011;10124;53.068;18.224;2023-05-07T13:36:19;2.55;;;2.17;;
19923;SDS011;10124;53.068;18.224;2023-05-07T13:38:47;3.80;;;1.67;;
19923;SDS011;10124;53.068;18.224;2023-05-07T13:41:15;5.90;;;1.90;;
19923;SDS011;10124;53.068;18.224;2023-05-07T13:43:42;2.38;;;1.52;;
19923;SDS011;10124;53.068;18.224;2023-05-07T13:46:11;2.88;;;1.92;;
19923;SDS011;10124;53.068;18.224;2023-05-07T13:48:39;3.78;;;1.80;;
19923;SDS011;10124;53.068;18.224;2023-05-07T13:51:07;9.35;;;1.80;;
19923;SDS011;10124;53.068;18.224;2023-05-07T13:53:34;3.17;;;1.95;;
19923;SDS011;10124;53.068;18.224;2023-05-07T13:56:03;3.22;;;1.95;;
19923;SDS011;10124;53.068;18.224;2023-05-07T13:58:31;5.00;;;1.90;;
19923;SDS011;10124;53.068;18.224;2023-05-07T14:01:00;3.67;;;2.17;;
19923;SDS011;10124;53.068;18.224;2023-05-07T14:03:27;4.05;;;2.20;;
19923;SDS011;10124;53.068;18.224;2023-05-07T14:05:57;3.17;;;1.92;;
19923;SDS011;10124;53.068;18.224;2023-05-07T14:08:26;4.05;;;2.17;;
19923;SDS011;10124;53.068;18.224;2023-05-07T14:10:57;4.07;;;1.60;;
19923;SDS011;10124;53.068;18.224;2023-05-07T14:13:26;5.05;;;2.45;;
19923;SDS011;10124;53.068;18.224;2023-05-07T14:15:54;3.90;;;2.10;;
19923;SDS011;10124;53.068;18.224;2023-05-07T14:18:22;3.05;;;2.17;;
19923;SDS011;10124;53.068;18.224;2023-05-07T14:20:50;2.80;;;2.03;;
19923;SDS011;10124;53.068;18.224;2023-05-07T14:23:18;4.10;;;2.20;;
19923;SDS011;10124;53.068;18.224;2023-05-07T14:25:50;6.30;;;2.47;;
19923;SDS011;10124;53.068;18.224;2023-05-07T14:28:18;4.80;;;2.17;;
19923;SDS011;10124;53.068;18.224;2023-05-07T14:30:46;7.95;;;1.90;;
19923;SDS011;10124;53.068;18.224;2023-05-07T14:33:13;4.78;;;2.00;;
19923;SDS011;10124;53.068;18.224;2023-05-07T14:35:41;5.50;;;2.47;;
19923;SDS011;10124;53.068;18.224;2023-05-07T14:38:14;3.90;;;1.80;;
19923;SDS011;10124;53.068;18.224;2023-05-07T14:40:42;2.85;;;2.10;;
19923;SDS011;10124;53.068;18.224;2023-05-07T14:43:10;3.58;;;2.33;;
19923;SDS011;10124;53.068;18.224;2023-05-07T14:45:38;7.28;;;2.08;;
19923;SDS011;10124;53.068;18.224;2023-05-07T14:48:06;2.53;;;2.00;;